Yuedian 58 — BYFE — position and weather

sailwx.info

Track history (hours):
 
Tides and Currents Weather Stations Pressure Air Temp Water Temp Dewpoint Dewpoint Depression Visibility Wind Speed Wind Dir Waves Ship Positions

Yuedian 58

Last reported at 2015-Jul-03 16:30 UTC. Time now 2015-Jul-03 17:19 UTC.
Position S 03°42' E 114°28'.

Length 190 m; draft 7.1 m.

Type: Cargo ship. MMSI: 414008000.

Date/timePositionNaut miles runAvg speedWind from/ knotsBaromVisibWave heightAir tempDewpointWater temp
2015-Jul-03 16:30S 03°42' E 114°28'0 0.0
2015-Jul-03 15:30S 03°42' E 114°28'0 0.0
2015-Jul-03 14:33S 03°42' E 114°28'0 0.0
2015-Jul-03 13:30S 03°42' E 114°28'0 0.0
2015-Jul-03 12:30S 03°42' E 114°28'0 0.0
2015-Jul-03 11:33S 03°42' E 114°28'0 0.0
2015-Jul-03 10:27S 03°42' E 114°28'0 0.0
2015-Jul-03 09:33S 03°42' E 114°28'0 0.0
2015-Jul-03 08:30S 03°42' E 114°28'0 0.0
2015-Jul-03 07:33S 03°42' E 114°28'0 0.0
2015-Jul-03 06:24S 03°42' E 114°28'0 0.0
2015-Jul-03 05:33S 03°42' E 114°28'0 0.0
2015-Jul-03 04:33S 03°42' E 114°28'0 0.0
2015-Jul-03 03:33S 03°42' E 114°28'0 0.1
2015-Jul-03 02:33S 03°42' E 114°28'0 0.1
2015-Jul-03 01:33S 03°42' E 114°28'0 0.0
2015-Jul-03 00:33S 03°42' E 114°28'0 0.0
2015-Jul-02 23:33S 03°42' E 114°28'0 0.0
2015-Jul-02 22:33S 03°42' E 114°28'0 0.0
2015-Jul-02 21:30S 03°42' E 114°28'0 0.0
2015-Jul-02 20:33S 03°42' E 114°28'0 0.0
2015-Jul-02 19:33S 03°42' E 114°28'0 0.0
2015-Jul-02 18:33S 03°42' E 114°28'0 0.0
2015-Jul-02 17:30S 03°42' E 114°28'0 0.0
2015-Jul-02 16:33S 03°42' E 114°28'0 0.0
2015-Jul-02 15:33S 03°42' E 114°28'0 0.0
2015-Jul-02 14:30S 03°42' E 114°28'0 0.0
2015-Jul-02 13:33S 03°42' E 114°28'0 0.0
2015-Jul-02 12:33S 03°42' E 114°28'0 0.0
2015-Jul-02 11:27S 03°42' E 114°28'0 0.0
2015-Jul-02 10:33S 03°42' E 114°28'0 0.0
2015-Jul-02 09:33S 03°42' E 114°28'0 0.1
2015-Jul-02 08:30S 03°42' E 114°28'0 0.1
2015-Jul-02 07:33S 03°42' E 114°28'0 0.0
2015-Jul-02 06:33S 03°42' E 114°28'0 0.0
2015-Jul-02 05:33S 03°42' E 114°28'0 0.0
2015-Jul-02 04:30S 03°42' E 114°28'0 0.0
2015-Jul-02 03:33S 03°42' E 114°28'0 0.0
2015-Jul-02 02:33S 03°42' E 114°28'0 0.0
2015-Jul-02 01:24S 03°42' E 114°28'0 0.0
2015-Jul-02 00:33S 03°42' E 114°28'0 0.0
2015-Jul-01 23:33S 03°42' E 114°28'0 0.0
2015-Jul-01 22:30S 03°42' E 114°28'0 0.0
2015-Jul-01 21:33S 03°42' E 114°28'0 0.0
2015-Jul-01 20:33S 03°42' E 114°28'0 0.0
2015-Jul-01 19:33S 03°42' E 114°28'0 0.0
2015-Jul-01 18:33S 03°42' E 114°28'0 0.0
2015-Jul-01 17:33S 03°42' E 114°28'0 0.0
2015-Jul-01 16:30S 03°42' E 114°28'0 0.0
2015-Jul-01 15:33S 03°42' E 114°28'0 0.0
2015-Jul-01 14:33S 03°42' E 114°28'0 0.0
2015-Jul-01 13:33S 03°42' E 114°28'0 0.0
2015-Jul-01 12:21S 03°42' E 114°28'0 0.0
2015-Jul-01 11:30S 03°42' E 114°28'0 0.0
2015-Jul-01 10:30S 03°42' E 114°28'0 0.0
2015-Jul-01 09:33S 03°42' E 114°28'0 0.0
2015-Jul-01 08:30S 03°42' E 114°28'0 0.0
2015-Jul-01 07:33S 03°42' E 114°28'0 0.0
2015-Jul-01 06:21S 03°42' E 114°28'0 0.2
2015-Jul-01 05:30S 03°42' E 114°28'6 6.3
2015-Jul-01 04:33S 03°48' E 114°28'  
2015-Jun-25 05:11N 22°05' E 114°07'5 1.7
2015-Jun-25 02:24N 22°10' E 114°09'0 0.0
2015-Jun-24 21:18N 22°09' E 114°09'3 4.1
2015-Jun-24 20:33N 22°06' E 114°10'  
Track history (hours):
 
Tides and Currents Weather Stations Pressure Air Temp Water Temp Dewpoint Dewpoint Depression Visibility Wind Speed Wind Dir Waves Ship Positions

Yuedian 58

Last reported at 2015-Jul-03 16:30 UTC. Time now 2015-Jul-03 17:19 UTC.
Position S 03°42' E 114°28'.

Length 190 m; draft 7.1 m.

Type: Cargo ship. MMSI: 414008000.

Date/timePositionNaut miles runAvg speedWind from/ knotsBaromVisibWave heightAir tempDewpointWater temp
2015-Jul-03 16:30S 03°42' E 114°28'0 0.0
2015-Jul-03 15:30S 03°42' E 114°28'0 0.0
2015-Jul-03 14:33S 03°42' E 114°28'0 0.0
2015-Jul-03 13:30S 03°42' E 114°28'0 0.0
2015-Jul-03 12:30S 03°42' E 114°28'0 0.0
2015-Jul-03 11:33S 03°42' E 114°28'0 0.0
2015-Jul-03 10:27S 03°42' E 114°28'0 0.0
2015-Jul-03 09:33S 03°42' E 114°28'0 0.0
2015-Jul-03 08:30S 03°42' E 114°28'0 0.0
2015-Jul-03 07:33S 03°42' E 114°28'0 0.0
2015-Jul-03 06:24S 03°42' E 114°28'0 0.0
2015-Jul-03 05:33S 03°42' E 114°28'0 0.0
2015-Jul-03 04:33S 03°42' E 114°28'0 0.0
2015-Jul-03 03:33S 03°42' E 114°28'0 0.1
2015-Jul-03 02:33S 03°42' E 114°28'0 0.1
2015-Jul-03 01:33S 03°42' E 114°28'0 0.0
2015-Jul-03 00:33S 03°42' E 114°28'0 0.0
2015-Jul-02 23:33S 03°42' E 114°28'0 0.0
2015-Jul-02 22:33S 03°42' E 114°28'0 0.0
2015-Jul-02 21:30S 03°42' E 114°28'0 0.0
2015-Jul-02 20:33S 03°42' E 114°28'0 0.0
2015-Jul-02 19:33S 03°42' E 114°28'0 0.0
2015-Jul-02 18:33S 03°42' E 114°28'0 0.0
2015-Jul-02 17:30S 03°42' E 114°28'0 0.0
2015-Jul-02 16:33S 03°42' E 114°28'0 0.0
2015-Jul-02 15:33S 03°42' E 114°28'0 0.0
2015-Jul-02 14:30S 03°42' E 114°28'0 0.0
2015-Jul-02 13:33S 03°42' E 114°28'0 0.0
2015-Jul-02 12:33S 03°42' E 114°28'0 0.0
2015-Jul-02 11:27S 03°42' E 114°28'0 0.0
2015-Jul-02 10:33S 03°42' E 114°28'0 0.0
2015-Jul-02 09:33S 03°42' E 114°28'0 0.1
2015-Jul-02 08:30S 03°42' E 114°28'0 0.1
2015-Jul-02 07:33S 03°42' E 114°28'0 0.0
2015-Jul-02 06:33S 03°42' E 114°28'0 0.0
2015-Jul-02 05:33S 03°42' E 114°28'0 0.0
2015-Jul-02 04:30S 03°42' E 114°28'0 0.0
2015-Jul-02 03:33S 03°42' E 114°28'0 0.0
2015-Jul-02 02:33S 03°42' E 114°28'0 0.0
2015-Jul-02 01:24S 03°42' E 114°28'0 0.0
2015-Jul-02 00:33S 03°42' E 114°28'0 0.0
2015-Jul-01 23:33S 03°42' E 114°28'0 0.0
2015-Jul-01 22:30S 03°42' E 114°28'0 0.0
2015-Jul-01 21:33S 03°42' E 114°28'0 0.0
2015-Jul-01 20:33S 03°42' E 114°28'0 0.0
2015-Jul-01 19:33S 03°42' E 114°28'0 0.0
2015-Jul-01 18:33S 03°42' E 114°28'0 0.0
2015-Jul-01 17:33S 03°42' E 114°28'0 0.0
2015-Jul-01 16:30S 03°42' E 114°28'0 0.0
2015-Jul-01 15:33S 03°42' E 114°28'0 0.0
2015-Jul-01 14:33S 03°42' E 114°28'0 0.0
2015-Jul-01 13:33S 03°42' E 114°28'0 0.0
2015-Jul-01 12:21S 03°42' E 114°28'0 0.0
2015-Jul-01 11:30S 03°42' E 114°28'0 0.0
2015-Jul-01 10:30S 03°42' E 114°28'0 0.0
2015-Jul-01 09:33S 03°42' E 114°28'0 0.0
2015-Jul-01 08:30S 03°42' E 114°28'0 0.0
2015-Jul-01 07:33S 03°42' E 114°28'0 0.0
2015-Jul-01 06:21S 03°42' E 114°28'0 0.2
2015-Jul-01 05:30S 03°42' E 114°28'6 6.3
2015-Jul-01 04:33S 03°48' E 114°28'  
2015-Jun-25 05:11N 22°05' E 114°07'5 1.7
2015-Jun-25 02:24N 22°10' E 114°09'0 0.0
2015-Jun-24 21:18N 22°09' E 114°09'3 4.1
2015-Jun-24 20:33N 22°06' E 114°10'  

Dump ship's entire track history